EGCC

Manchester Airport

Manchester, United Kingdom
METAR EGCC 241950Z AUTO 09010KT 9999 NCD 02/M03 Q1025 NOSIG
Observed Flight Rules
Feb-24 @ 19:50 UTC (21 minutes ago) Visual Flight Rules
Wind Visibility Clouds
90° at 10 knots 10,000+ meters
  • Clear skies
Temperatures Readings
Current 2°C / 36°F
Dewpoint -3°C / 27°F
Humidity 70%
Altimeter 30.27" Hg
Pressure 1025 hPa
Elevation 78
METAR EGCC 241950Z AUTO 09010KT 9999 NCD 02/M03 Q1025 NOSIG
Observed Flight Rules
Feb-24 @ 19:50 UTC
(21 minutes ago)
VFR
Wind Visibility
90° at 10 knots 10,000+ meters
Clouds
  • Clear skies
Temperature Dewpoint
2°C / 36°F -3°C / 27°F
Humidity Altimeter Pressure
70% 30.27" Hg 1025 hPa